Portada
METAR-TAF:

METAR-TAF

Aeropuertos :

Aeropuerto de Puvirnituq

Puvirnituq, Quebec, Canadá

latitud: 60-03N, longitud: 077-17W, altitud: 23 m

Observación

El informe se hizo hace 43 minutos, a las 11:00 UTC
Viento 3 kt del noroeste
Temperatura 8°C
Humedad 87%
Presión 1024 hPa
Visibilidad: 14.5 km
Escasas nubes a una altura de 24000 ft

METAR: CYPX 231100Z AUTO 31003KT 9SM FEW240 08/06 A3023 RMK SLP241

Hora: 07:43 (11:43 UTC)

Pronóstico

El informe se hizo hace 6 horas y 4 minutos, a las 05:39 UTC
Pronóstico válido del 23 a las 06 UTC al 23 a las 18 UTC
Viento 8 kt del oeste-noroeste
Visibilidad: 10 km
Cielo despejado
Temporalmente
del 23 a las 06 UTC al 23 a las 14 UTC
Visibilidad: 1.6 km
neblina

TAF: CYPX 230539Z 2306/2318 30008KT P6SM SKC TEMPO 2306/2314 1SM BR RMK FCST BASED ON AUTO OBS. NXT FCST BY 231200Z

Observaciones y pronósticos meteorológicos de más de 4000 aeropuertos (mensajes METAR y TAF).

Los puntos amarillos y rojos representan las estaciones disponibles.

Ponga el ratón en el punto deseado para ver el nombre de la estación.

Haga clic para ver las observaciones y los pronósticos meteorológicos.

Para cambiar el mapa : haga clic en los botones verdes con una cruz de color negro para hacer un zoom, en el botón verde con un guión para alejar o en las flechas verdes para mapas adyacentes.


METAR-TAF: